Sioux Gateway Col. Bud Day Field
KSUX : now visible

Airfield :











YOU CAN JOIN US ON...

 
LOGIN :

Register | Disclaimer

   EN    FR    IT 

 









Legend :    VFR   Marginal VFR   IFR   Intensive IFR   Very Intensive IFR
Visi :
Ceiling :
>= 8 km
>= 3000ft
5 to 8 km
1000 to 3000 ft
1500m to 5 km
500 to 1000 ft
800 to 1500m
200 to 500 ft
< 800m
< 200 ft
Symbols :   Thunderstorms  Fog  Heavy snow  Heavy precipitations  Wind > 20 kt






- Airport Elevation : 1098 ft
- IATA code : SUX


KSUX - Sioux Gateway Col. Bud Day Field

CURRENT METAR :
  • 281052Z AUTO 13012KT 10SM CLR M04/M07 A2972 RMK AO2 SLP074 T10391072

EXPIRED METARs :
  • 280952Z AUTO 10009KT 10SM SCT080 M07/M09 A2974 RMK AO2 SLP083 T10671089
  • 280852Z AUTO 12010KT 10SM CLR M07/M09 A2976 RMK AO2 SLP089 T10721094 58019

TAF KSUX
Valid from the 28 at 12:00 until the 29 at 12:00 UTC


281120Z 2812/2912 14013G20KT P6SM SCT250 WS015/21040KT
FM281600 20014G22KT P6SM SCT250
FM282000 22010KT P6SM SCT250
FM282300 VRB04KT P6SM SCT200
FM290700 03009KT P6SM OVC090
FM291100 03012G18KT 5SM -DZ OVC029
KZMP FIR / North America



MET'MAP, your aeronautical weather chart ! - Copyright ORBIFLY December 2007 - Disclaimer

ORBIFLY MET'MAP TEAM :

Programming & Development : Alexandra Zaïnal
Original concept : Baudouin d'Aumeries
Technical & hardware support : Manuel Goepfert
Assistance : Marc-Olivier Méhu




SOURCES & CREDITS :

   NOAA       Earth
Advisory